Time;durP1;ratioP1;P1;durP2;ratioP2;P2;SDS_P1;SDS_P2;PMS_P1;PMS_P2;Temp;Humidity;BMP_temperature;BMP_pressure;BME280_temperature;BME280_humidity;BME280_pressure;Samples;Min_cycle;Max_cycle;Signal;HPM_P1;HPM_P2
2021/12/05 00:16:58;;;;;;;55.03;28.75;;;3.10;82.30;;;-151.14;100.00;62537.16;4103688;34;20040;-84
2021/12/05 00:22:35;;;;;;;51.30;28.27;;;3.00;82.00;;;-151.14;100.00;62537.16;4129758;34;20241;-84
2021/12/05 00:25:04;;;;;;;56.08;30.33;;;3.10;82.20;;;-151.14;100.00;62537.16;4082644;34;19993;-84
2021/12/05 00:27:36;;;;;;;53.83;30.92;;;3.00;82.10;;;-151.14;100.00;62537.16;4082430;34;19991;-85
2021/12/05 00:44:39;;;;;;;46.28;27.25;;;3.00;82.20;;;-151.14;100.00;62537.16;4088289;34;19992;-83
2021/12/05 01:02:31;;;;;;;47.15;25.75;;;3.00;82.10;;;-151.14;100.00;62537.16;4100756;34;20000;-83
2021/12/05 01:06:26;;;;;;;46.63;26.52;;;3.00;82.00;;;-151.14;100.00;62537.16;4085085;34;20206;-84
2021/12/05 01:15:28;;;;;;;47.95;26.63;;;3.00;82.40;;;-151.14;100.00;62537.16;4059639;34;20056;-84
2021/12/05 01:18:14;;;;;;;44.65;26.52;;;3.00;82.40;;;-151.14;100.00;62537.16;4081067;34;20091;-84
2021/12/05 01:20:55;;;;;;;45.40;27.80;;;3.00;82.40;;;-151.14;100.00;62537.16;4071738;34;20171;-84
2021/12/05 01:26:07;;;;;;;48.45;27.13;;;3.00;82.40;;;-151.14;100.00;62537.16;4103753;34;20072;-85
2021/12/05 01:39:30;;;;;;;48.28;28.52;;;3.00;82.40;;;-151.14;100.00;62537.16;4133487;34;19995;-85
2021/12/05 01:52:34;;;;;;;41.45;25.25;;;3.00;82.20;;;-151.14;100.00;62537.16;4132344;34;20535;-85
2021/12/05 01:58:06;;;;;;;40.55;25.20;;;3.00;82.20;;;-151.14;100.00;62537.16;4154963;34;20091;-84
2021/12/05 02:11:37;;;;;;;41.85;23.50;;;3.00;82.20;;;-151.14;100.00;62537.16;4040855;34;19996;-84
2021/12/05 02:33:45;;;;;;;34.85;20.52;;;2.90;82.10;;;-151.14;100.00;62537.16;4072487;34;19992;-84
2021/12/05 02:39:11;;;;;;;33.25;20.05;;;2.90;82.00;;;-151.14;100.00;62537.16;4108900;34;20023;-84
2021/12/05 02:41:46;;;;;;;30.90;18.95;;;2.90;82.00;;;-151.14;100.00;62537.16;4108833;34;20012;-83
2021/12/05 02:44:24;;;;;;;30.05;18.92;;;2.90;82.00;;;-151.14;100.00;62537.16;4085213;34;20022;-84
2021/12/05 02:47:02;;;;;;;28.85;18.52;;;2.90;82.00;;;-151.14;100.00;62537.16;4089046;34;20201;-84
2021/12/05 02:49:31;;;;;;;32.58;19.23;;;2.90;82.20;;;-151.14;100.00;62537.16;4083941;34;20019;-84
2021/12/05 02:52:04;;;;;;;26.88;17.70;;;2.90;82.00;;;-151.14;100.00;62537.16;4104821;34;20283;-84
2021/12/05 02:54:38;;;;;;;29.17;18.63;;;3.00;82.20;;;-151.14;100.00;62537.16;4041007;34;20442;-84
2021/12/05 02:57:07;;;;;;;27.08;18.00;;;2.90;82.20;;;-151.14;100.00;62537.16;4083927;34;20056;-84
2021/12/05 03:02:14;;;;;;;27.05;17.58;;;2.90;82.00;;;-151.14;100.00;62537.16;4082848;34;20565;-84
2021/12/05 03:04:49;;;;;;;26.55;16.25;;;2.90;82.10;;;-151.14;100.00;62537.16;4063497;34;20068;-84
2021/12/05 03:07:20;;;;;;;25.90;17.15;;;2.90;82.00;;;-151.14;100.00;62537.16;4082331;34;20280;-84
2021/12/05 03:09:46;;;;;;;28.45;17.90;;;2.90;82.00;;;-151.14;100.00;62537.16;4105025;34;20138;-84
2021/12/05 03:12:19;;;;;;;27.10;17.63;;;2.90;82.00;;;-151.14;100.00;62537.16;4061036;34;20060;-83
2021/12/05 03:14:47;;;;;;;29.05;17.73;;;2.90;82.10;;;-151.14;100.00;62537.16;4083110;34;20241;-83
2021/12/05 03:17:14;;;;;;;27.35;16.38;;;2.90;82.20;;;-151.14;100.00;62537.16;4060928;34;20036;-84
2021/12/05 03:19:41;;;;;;;27.42;17.00;;;2.90;82.40;;;-151.14;100.00;62537.16;4104468;34;19988;-83
2021/12/05 03:22:09;;;;;;;26.85;16.42;;;2.90;82.10;;;-151.14;100.00;62537.16;4040677;34;20175;-84
2021/12/05 03:24:36;;;;;;;25.10;15.57;;;2.90;82.10;;;-151.14;100.00;62537.16;4082568;34;20004;-84
2021/12/05 03:27:03;;;;;;;24.38;16.98;;;2.90;82.00;;;-151.14;100.00;62537.16;4082384;34;20018;-84
2021/12/05 03:29:30;;;;;;;23.85;15.98;;;2.90;82.10;;;-151.14;100.00;62537.16;4061173;34;20000;-84
2021/12/05 03:31:58;;;;;;;26.80;15.88;;;2.90;82.20;;;-151.14;100.00;62537.16;4061223;34;20523;-84
2021/12/05 03:34:27;;;;;;;24.48;16.05;;;2.90;81.90;;;-151.14;100.00;62537.16;4061919;34;20450;-84
2021/12/05 03:36:55;;;;;;;27.63;16.38;;;2.90;82.10;;;-151.14;100.00;62537.16;4059909;34;20439;-84
2021/12/05 03:39:24;;;;;;;25.65;16.58;;;2.90;82.20;;;-151.14;100.00;62537.16;4060376;34;20294;-84
2021/12/05 03:41:52;;;;;;;25.83;15.55;;;2.90;82.40;;;-151.14;100.00;62537.16;4039404;34;20008;-84
2021/12/05 03:44:25;;;;;;;23.65;15.02;;;2.90;82.30;;;-151.14;100.00;62537.16;4062010;34;20206;-84
2021/12/05 03:46:53;;;;;;;24.25;15.25;;;2.90;82.20;;;-151.14;100.00;62537.16;4060881;34;20235;-84
2021/12/05 03:49:21;;;;;;;24.13;16.13;;;2.90;82.20;;;-151.14;100.00;62537.16;4082823;34;19988;-84
2021/12/05 03:52:02;;;;;;;26.90;16.50;;;2.90;82.20;;;-151.14;100.00;62537.16;4082484;34;19988;-84
2021/12/05 03:54:29;;;;;;;23.48;15.55;;;2.90;82.10;;;-151.14;100.00;62537.16;4081654;34;20026;-84
2021/12/05 03:56:59;;;;;;;22.83;15.43;;;2.90;82.30;;;-151.14;100.00;62537.16;4103869;34;20553;-84
2021/12/05 03:59:28;;;;;;;24.30;15.63;;;2.90;82.30;;;-151.14;100.00;62537.16;4104595;34;19992;-84
2021/12/05 04:01:56;;;;;;;23.38;15.77;;;2.90;82.20;;;-151.14;100.00;62537.16;4083135;34;20706;-84
2021/12/05 04:04:23;;;;;;;25.77;15.45;;;2.90;82.20;;;-151.14;100.00;62537.16;4060703;34;20174;-84
2021/12/05 04:06:50;;;;;;;23.42;14.77;;;2.90;82.20;;;-151.14;100.00;62537.16;4081821;34;20080;-84
2021/12/05 04:09:18;;;;;;;23.50;15.05;;;2.90;82.20;;;-151.14;100.00;62537.16;4082145;34;19992;-84
2021/12/05 04:11:56;;;;;;;24.10;15.63;;;2.90;82.20;;;-151.14;100.00;62537.16;4082564;34;20168;-84
2021/12/05 04:14:42;;;;;;;27.33;15.35;;;2.90;82.20;;;-151.14;100.00;62537.16;4084015;34;20016;-84
2021/12/05 04:17:11;;;;;;;;;;;2.90;82.30;;;-151.14;100.00;62537.16;4083635;34;20162;-84
2021/12/05 04:19:39;;;;;;;26.67;15.55;;;2.80;82.10;;;-151.14;100.00;62537.16;4060459;34;20294;-83
2021/12/05 04:22:07;;;;;;;23.10;15.57;;;2.90;82.20;;;-151.14;100.00;62537.16;4081649;34;20011;-83
2021/12/05 04:24:34;;;;;;;24.75;14.25;;;2.90;82.30;;;-151.14;100.00;62537.16;4060656;34;20134;-83
2021/12/05 04:27:00;;;;;;;24.30;15.63;;;2.80;82.00;;;-151.14;100.00;62537.16;4081565;34;20254;-83
2021/12/05 04:29:27;;;;;;;23.65;15.40;;;2.80;82.00;;;-151.14;100.00;62537.16;4103952;34;20004;-84
2021/12/05 04:31:53;;;;;;;23.58;14.65;;;2.80;82.20;;;-151.14;100.00;62537.16;4082238;34;20016;-84
2021/12/05 04:34:20;;;;;;;23.67;14.80;;;2.80;82.00;;;-151.14;100.00;62537.16;4084426;34;19988;-84
2021/12/05 04:36:46;;;;;;;25.10;15.80;;;2.80;82.10;;;-151.14;100.00;62537.16;4107925;34;20319;-82
2021/12/05 04:39:14;;;;;;;23.95;14.50;;;2.80;81.90;;;-151.14;100.00;62537.16;4108578;34;19999;-86
2021/12/05 04:41:43;;;;;;;24.77;14.95;;;2.80;82.00;;;-151.14;100.00;62537.16;4088059;34;20030;-84
2021/12/05 04:44:09;;;;;;;26.00;16.17;;;2.80;82.10;;;-151.14;100.00;62537.16;4082266;34;19993;-84
2021/12/05 04:46:36;;;;;;;22.52;15.18;;;2.80;82.10;;;-151.14;100.00;62537.16;4055685;34;20121;-84
2021/12/05 04:49:05;;;;;;;22.67;14.73;;;2.80;82.00;;;-151.14;100.00;62537.16;4096186;34;20079;-84
2021/12/05 04:51:38;;;;;;;23.92;15.45;;;2.80;82.40;;;-151.14;100.00;62537.16;4082874;34;19995;-84
2021/12/05 04:54:14;;;;;;;26.38;15.95;;;2.80;82.20;;;-151.14;100.00;62537.16;4103960;34;20231;-84
2021/12/05 04:56:41;;;;;;;25.42;16.45;;;2.80;81.90;;;-151.14;100.00;62537.16;4081437;34;20312;-84
2021/12/05 04:59:14;;;;;;;26.27;16.77;;;2.80;81.70;;;-151.14;100.00;62537.16;4126103;34;20240;-84
2021/12/05 05:01:48;;;;;;;22.50;15.00;;;2.80;81.90;;;-151.14;100.00;62537.16;4084938;34;20337;-84
2021/12/05 05:04:28;;;;;;;27.85;16.30;;;2.80;82.00;;;-151.14;100.00;62537.16;4081468;34;20503;-84
2021/12/05 05:07:16;;;;;;;25.25;16.10;;;2.80;82.00;;;-151.14;100.00;62537.16;4087245;34;19996;-84
2021/12/05 05:09:45;;;;;;;25.17;15.35;;;2.80;81.90;;;-151.14;100.00;62537.16;4068852;34;20415;-84
2021/12/05 05:12:11;;;;;;;24.10;14.18;;;2.80;81.90;;;-151.14;100.00;62537.16;4117344;34;20465;-84
2021/12/05 05:14:38;;;;;;;24.73;15.95;;;2.80;81.90;;;-151.14;100.00;62537.16;4083734;34;20279;-84
2021/12/05 05:17:04;;;;;;;25.48;16.52;;;2.80;82.10;;;-151.14;100.00;62537.16;4105358;34;20259;-83
2021/12/05 05:19:38;;;;;;;21.70;14.38;;;2.80;82.30;;;-151.14;100.00;62537.16;4061830;34;20366;-83
2021/12/05 05:23:05;;;;;;;23.17;15.18;;;2.80;82.20;;;-151.14;100.00;62537.16;4064841;34;19985;-84
2021/12/05 05:50:13;;;;;;;22.70;15.68;;;2.80;82.10;;;-151.14;100.00;62537.16;4101410;34;20016;-84
2021/12/05 05:52:39;;;;;;;23.55;15.15;;;2.80;82.10;;;-151.14;100.00;62537.16;4078609;34;20209;-84
2021/12/05 05:55:06;;;;;;;23.30;15.25;;;2.80;82.20;;;-151.14;100.00;62537.16;4078850;34;19987;-85
2021/12/05 05:57:58;;;;;;;23.02;15.18;;;2.80;82.10;;;-151.14;100.00;62537.16;4078868;34;19985;-85
2021/12/05 06:00:34;;;;;;;25.58;15.05;;;2.80;82.30;;;-151.14;100.00;62537.16;4088036;34;20225;-84
2021/12/05 06:03:21;;;;;;;22.67;15.93;;;2.80;82.30;;;-151.14;100.00;62537.16;4080321;34;20399;-85
2021/12/05 06:06:00;;;;;;;20.95;14.40;;;2.80;82.10;;;-151.14;100.00;62537.16;4084290;34;20004;-84
2021/12/05 06:08:30;;;;;;;23.77;15.38;;;2.80;82.00;;;-151.14;100.00;62537.16;4100452;34;20001;-85
2021/12/05 06:11:00;;;;;;;23.85;15.85;;;2.80;82.10;;;-151.14;100.00;62537.16;4077501;34;20024;-84
2021/12/05 06:13:28;;;;;;;23.80;15.38;;;2.80;82.20;;;-151.14;100.00;62537.16;4058148;34;20118;-84
2021/12/05 06:15:55;;;;;;;25.10;15.73;;;2.80;82.10;;;-151.14;100.00;62537.16;4057024;34;20055;-84
2021/12/05 06:18:21;;;;;;;23.77;16.40;;;2.80;82.10;;;-151.14;100.00;62537.16;4055834;34;20160;-84
2021/12/05 06:20:48;;;;;;;23.25;16.08;;;2.80;82.00;;;-151.14;100.00;62537.16;4057377;34;19997;-84
2021/12/05 06:23:15;;;;;;;25.40;16.88;;;2.80;82.10;;;-151.14;100.00;62537.16;4078394;34;20081;-84
2021/12/05 06:25:45;;;;;;;29.33;16.45;;;2.80;82.00;;;-151.14;100.00;62537.16;4057101;34;20247;-84
2021/12/05 06:28:13;;;;;;;22.95;15.82;;;2.80;81.90;;;-151.14;100.00;62537.16;4078355;34;19985;-85
2021/12/05 06:47:11;;;;;;;30.00;18.80;;;2.80;82.00;;;-151.14;100.00;62537.16;4056301;34;20136;-85
2021/12/05 06:49:39;;;;;;;28.40;18.15;;;2.80;82.00;;;-151.14;100.00;62537.16;4078778;34;20001;-84
2021/12/05 06:52:07;;;;;;;24.98;17.15;;;2.80;82.00;;;-151.14;100.00;62537.16;4078575;34;20237;-85
2021/12/05 06:54:35;;;;;;;24.38;17.15;;;2.80;81.80;;;-151.14;100.00;62537.16;4056360;34;20000;-85
2021/12/05 06:57:02;;;;;;;25.00;17.08;;;2.90;82.00;;;-151.14;100.00;62537.16;4034898;34;20039;-84
2021/12/05 06:59:29;;;;;;;26.83;17.00;;;2.90;81.90;;;-151.14;100.00;62537.16;4078234;34;20139;-85
2021/12/05 07:01:56;;;;;;;27.27;18.60;;;2.90;81.70;;;-151.14;100.00;62537.16;4104629;34;20102;-85
2021/12/05 07:07:14;;;;;;;31.25;19.30;;;2.90;81.70;;;-151.14;100.00;62537.16;4085526;34;20238;-85
2021/12/05 07:09:41;;;;;;;27.98;18.15;;;2.90;81.70;;;-151.14;100.00;62537.16;4083975;34;20028;-85
2021/12/05 07:15:00;;;;;;;29.23;18.35;;;2.90;82.50;;;-151.14;100.00;62537.16;4070874;34;20295;-85
2021/12/05 07:22:47;;;;;;;33.42;19.58;;;2.90;81.70;;;-151.14;100.00;62537.16;4063137;34;20086;-85
2021/12/05 07:25:28;;;;;;;29.00;19.63;;;2.90;81.60;;;-151.14;100.00;62537.16;4087444;34;20461;-85
2021/12/05 07:44:06;;;;;;;32.75;21.42;;;2.90;81.60;;;-151.14;100.00;62537.16;4039234;34;20338;-85
2021/12/05 07:46:32;;;;;;;34.25;21.92;;;2.90;81.60;;;-151.14;100.00;62537.16;4055372;34;20230;-85
2021/12/05 07:49:09;;;;;;;34.95;22.55;;;2.90;81.60;;;-151.14;100.00;62537.16;4052301;34;20194;-85
2021/12/05 07:51:47;;;;;;;33.07;21.00;;;2.90;81.60;;;-151.14;100.00;62537.16;4065358;34;20174;-84
2021/12/05 07:54:30;;;;;;;31.48;21.42;;;2.90;81.70;;;-151.14;100.00;62537.16;4036280;34;20062;-84
2021/12/05 07:57:09;;;;;;;35.22;21.90;;;2.90;81.70;;;-151.14;100.00;62537.16;4043097;34;20158;-84
2021/12/05 07:59:57;;;;;;;32.28;21.92;;;2.90;81.70;;;-151.14;100.00;62537.16;4041331;34;20180;-84
2021/12/05 08:16:12;;;;;;;33.20;21.35;;;3.10;80.90;;;-151.14;100.00;62537.16;4069970;34;20205;-84
2021/12/05 08:18:38;;;;;;;33.85;21.15;;;3.20;80.70;;;-151.14;100.00;62537.16;4036783;34;20174;-84
2021/12/05 08:21:07;;;;;;;31.58;20.35;;;3.30;80.70;;;-151.14;100.00;62537.16;4103300;34;20134;-84
2021/12/05 08:23:34;;;;;;;33.10;20.52;;;3.30;80.50;;;-151.14;100.00;62537.16;4082186;34;20035;-84
2021/12/05 08:31:17;;;;;;;29.95;19.50;;;3.40;80.00;;;-151.14;100.00;62537.16;4103943;34;20000;-84
2021/12/05 08:42:04;;;;;;;30.48;19.73;;;3.30;80.00;;;-151.14;100.00;62537.16;4120196;34;20004;-84
2021/12/05 09:31:03;;;;;;;24.65;16.27;;;3.60;79.70;;;-151.14;100.00;62537.16;4085318;34;20008;-84
2021/12/05 10:10:26;;;;;;;20.52;14.20;;;3.50;80.10;;;-151.14;100.00;62537.16;4083712;34;20188;-85
2021/12/05 10:38:40;;;;;;;16.83;12.02;;;3.50;79.80;;;-151.14;100.00;62537.16;4072015;34;19993;-86
2021/12/05 10:44:09;;;;;;;18.35;12.07;;;3.50;80.00;;;-151.14;100.00;62537.16;4059144;34;20095;-85
2021/12/05 10:46:37;;;;;;;17.27;11.57;;;3.50;80.00;;;-151.14;100.00;62537.16;4057070;34;20572;-86
2021/12/05 10:49:09;;;;;;;17.17;11.93;;;3.50;80.00;;;-151.14;100.00;62537.16;4057657;34;20044;-86
2021/12/05 10:51:45;;;;;;;18.00;11.75;;;3.50;80.00;;;-151.14;100.00;62537.16;4077954;34;20108;-84
2021/12/05 10:54:24;;;;;;;16.52;12.00;;;3.50;80.00;;;-151.14;100.00;62537.16;4077723;34;20279;-85
2021/12/05 10:56:56;;;;;;;17.65;11.60;;;3.50;80.00;;;-151.14;100.00;62537.16;4078303;34;20047;-86
2021/12/05 10:59:39;;;;;;;19.23;12.27;;;3.50;80.00;;;-151.14;100.00;62537.16;4057855;34;20000;-86
2021/12/05 11:02:16;;;;;;;16.73;10.95;;;3.50;79.90;;;-151.14;100.00;62537.16;4039148;34;20021;-85
2021/12/05 11:04:46;;;;;;;15.30;11.10;;;3.60;79.80;;;-151.14;100.00;62537.16;4035447;34;20267;-86
2021/12/05 11:07:21;;;;;;;14.80;10.40;;;3.50;79.70;;;-151.14;100.00;62537.16;4056967;34;20048;-86
2021/12/05 11:09:52;;;;;;;16.13;11.85;;;3.50;79.60;;;-151.14;100.00;62537.16;4058125;34;20058;-86
2021/12/05 11:12:40;;;;;;;16.10;10.95;;;3.50;79.60;;;-151.14;100.00;62537.16;4101383;34;20005;-86
2021/12/05 11:15:13;;;;;;;16.80;11.15;;;3.50;79.50;;;-151.14;100.00;62537.16;4093758;34;20296;-85
2021/12/05 11:17:47;;;;;;;17.13;10.82;;;3.50;79.60;;;-151.14;100.00;62537.16;4062112;34;19996;-86
2021/12/05 11:20:29;;;;;;;16.17;10.93;;;3.50;79.60;;;-151.14;100.00;62537.16;4063747;34;19992;-86
2021/12/05 11:22:56;;;;;;;15.02;10.23;;;3.50;79.70;;;-151.14;100.00;62537.16;4107084;34;19995;-86
2021/12/05 11:25:29;;;;;;;15.88;10.80;;;3.50;79.70;;;-151.14;100.00;62537.16;4061389;34;20067;-87
2021/12/05 11:28:01;;;;;;;17.02;10.90;;;3.50;79.80;;;-151.14;100.00;62537.16;4104537;34;20227;-86
2021/12/05 11:30:33;;;;;;;16.13;11.43;;;3.40;79.80;;;-151.14;100.00;62537.16;4077765;34;20224;-86
2021/12/05 11:33:18;;;;;;;14.77;10.05;;;3.40;79.80;;;-151.14;100.00;62537.16;4036070;34;20046;-86
2021/12/05 11:36:00;;;;;;;16.20;11.27;;;3.40;79.90;;;-151.14;100.00;62537.16;4085081;34;20213;-86
2021/12/05 11:38:29;;;;;;;15.00;10.68;;;3.40;80.00;;;-151.14;100.00;62537.16;4040043;34;19981;-86
2021/12/05 11:41:07;;;;;;;16.88;10.93;;;3.40;80.00;;;-151.14;100.00;62537.16;4082562;34;20243;-86
2021/12/05 11:43:44;;;;;;;17.63;10.20;;;3.40;80.10;;;-151.14;100.00;62537.16;4083645;34;20196;-86
2021/12/05 11:46:27;;;;;;;15.27;10.93;;;3.40;80.00;;;-151.14;100.00;62537.16;4082575;34;20068;-86
2021/12/05 11:49:08;;;;;;;17.02;10.52;;;3.30;80.10;;;-151.14;100.00;62537.16;4103952;34;20220;-86
2021/12/05 11:51:44;;;;;;;13.55;10.15;;;3.30;80.10;;;-151.14;100.00;62537.16;4103693;34;20113;-85
2021/12/05 11:54:27;;;;;;;13.52;9.38;;;3.30;80.10;;;-151.14;100.00;62537.16;4103857;34;20004;-86
2021/12/05 11:57:02;;;;;;;14.05;10.07;;;3.30;80.20;;;-151.14;100.00;62537.16;4104297;34;20115;-86
2021/12/05 12:00:10;;;;;;;14.52;10.77;;;3.30;80.20;;;-151.14;100.00;62537.16;4081142;34;20454;-86
2021/12/05 12:02:40;;;;;;;;;;;3.30;80.30;;;-151.14;100.00;62537.16;4063842;34;20223;-86
2021/12/05 12:05:25;;;;;;;14.30;10.00;;;3.30;80.30;;;-151.14;100.00;62537.16;4104905;34;20024;-86
2021/12/05 12:08:12;;;;;;;13.27;9.23;;;3.30;80.40;;;-151.14;100.00;62537.16;4085742;34;20119;-87
2021/12/05 12:10:57;;;;;;;13.32;9.10;;;3.30;80.40;;;-151.14;100.00;62537.16;4083394;34;20111;-87
2021/12/05 12:13:29;;;;;;;16.30;10.50;;;3.30;80.40;;;-151.14;100.00;62537.16;4083940;34;19996;-87
2021/12/05 12:15:59;;;;;;;12.38;8.60;;;3.30;80.40;;;-151.14;100.00;62537.16;4062202;34;20243;-87
2021/12/05 12:18:36;;;;;;;12.02;8.63;;;3.30;80.40;;;-151.14;100.00;62537.16;4061308;34;20012;-87
2021/12/05 12:21:18;;;;;;;13.38;9.52;;;3.30;80.50;;;-151.14;100.00;62537.16;4061932;34;20130;-86
2021/12/05 12:23:49;;;;;;;13.48;9.07;;;3.30;80.50;;;-151.14;100.00;62537.16;4083184;34;20083;-86
2021/12/05 12:26:15;;;;;;;13.57;9.38;;;3.30;80.60;;;-151.14;100.00;62537.16;4040567;34;20215;-86
2021/12/05 12:28:41;;;;;;;12.82;8.82;;;3.30;80.60;;;-151.14;100.00;62537.16;4060948;34;19993;-87
2021/12/05 12:31:32;;;;;;;14.90;9.50;;;3.30;80.60;;;-151.14;100.00;62537.16;4039512;34;19989;-87
2021/12/05 12:34:04;;;;;;;16.15;10.15;;;3.30;80.60;;;-151.14;100.00;62537.16;4043459;34;20004;-86
2021/12/05 12:36:37;;;;;;;15.23;9.70;;;3.30;80.60;;;-151.14;100.00;62537.16;4060829;34;20129;-86
2021/12/05 12:39:19;;;;;;;12.75;8.82;;;3.30;80.50;;;-151.14;100.00;62537.16;4061652;34;20068;-87
2021/12/05 12:42:23;;;;;;;15.38;10.02;;;3.30;80.60;;;-151.14;100.00;62537.16;4088437;34;20119;-87
2021/12/05 12:45:21;;;;;;;13.88;9.88;;;3.30;80.60;;;-151.14;100.00;62537.16;4044832;34;20137;-87
2021/12/05 12:47:58;;;;;;;13.23;9.40;;;3.30;80.50;;;-151.14;100.00;62537.16;4077806;34;20161;-86
2021/12/05 12:50:51;;;;;;;15.10;10.65;;;3.20;80.50;;;-151.14;100.00;62537.16;4036298;34;20079;-86
2021/12/05 12:53:29;;;;;;;14.88;10.35;;;3.30;80.60;;;-151.14;100.00;62537.16;4065046;34;20390;-87
2021/12/05 12:56:09;;;;;;;14.18;9.75;;;3.30;80.50;;;-151.14;100.00;62537.16;4060939;34;20288;-87
2021/12/05 12:58:58;;;;;;;12.27;9.20;;;3.20;80.50;;;-151.14;100.00;62537.16;4061969;34;20071;-87
2021/12/05 13:10:11;;;;;;;13.27;9.52;;;3.20;80.40;;;-151.14;100.00;62537.16;4065787;34;20012;-87
2021/12/05 13:12:48;;;;;;;12.55;8.77;;;3.20;80.40;;;-151.14;100.00;62537.16;4089169;34;20188;-87
2021/12/05 13:15:36;;;;;;;12.80;8.75;;;3.20;80.40;;;-151.14;100.00;62537.16;4126370;34;20316;-87
2021/12/05 13:18:25;;;;;;;13.43;9.13;;;3.20;80.40;;;-151.14;100.00;62537.16;4082900;34;20034;-87
2021/12/05 13:21:10;;;;;;;12.35;8.43;;;3.20;80.40;;;-151.14;100.00;62537.16;4062383;34;20048;-87
2021/12/05 13:23:50;;;;;;;12.43;8.35;;;3.20;80.30;;;-151.14;100.00;62537.16;4085574;34;20154;-87
2021/12/05 13:26:33;;;;;;;12.40;8.43;;;3.20;80.30;;;-151.14;100.00;62537.16;4200694;29;19996;-81
2021/12/05 13:29:25;;;;;;;13.02;8.45;;;3.20;80.30;;;-151.14;100.00;62537.16;4128476;34;20089;-81
2021/12/05 13:32:06;;;;;;;13.98;8.25;;;3.20;80.30;;;-151.14;100.00;62537.16;4085352;34;20095;-81
2021/12/05 13:34:41;;;;;;;12.13;8.20;;;3.20;80.30;;;-151.14;100.00;62537.16;4085371;34;20015;-80
2021/12/05 13:37:13;;;;;;;14.05;8.20;;;3.20;80.30;;;-151.14;100.00;62537.16;4177974;34;20012;-81
2021/12/05 13:40:11;;;;;;;15.68;9.13;;;3.20;80.30;;;-151.14;100.00;62537.16;4133018;34;19994;-81
2021/12/05 13:42:42;;;;;;;12.93;8.30;;;3.20;80.30;;;-151.14;100.00;62537.16;4115231;34;20337;-82
2021/12/05 13:45:28;;;;;;;11.13;8.15;;;3.20;80.30;;;-151.14;100.00;62537.16;4110719;34;20027;-80
2021/12/05 13:47:54;;;;;;;10.95;7.85;;;3.20;80.30;;;-151.14;100.00;62537.16;4136207;34;19996;-81
2021/12/05 13:50:25;;;;;;;11.82;8.45;;;3.20;80.30;;;-151.14;100.00;62537.16;4178234;34;20015;-81
2021/12/05 13:53:07;;;;;;;12.23;8.32;;;3.20;80.30;;;-151.14;100.00;62537.16;4132894;34;20199;-81
2021/12/05 13:56:02;;;;;;;11.88;7.65;;;3.20;80.30;;;-151.14;100.00;62537.16;4132607;34;20020;-81
2021/12/05 13:58:32;;;;;;;13.38;8.93;;;3.20;80.30;;;-151.14;100.00;62537.16;4135340;34;20016;-81
2021/12/05 14:01:18;;;;;;;12.00;7.97;;;3.20;80.30;;;-151.14;100.00;62537.16;4155592;34;19995;-81
2021/12/05 14:04:04;;;;;;;10.57;7.63;;;3.20;80.30;;;-151.14;100.00;62537.16;4129180;34;20067;-80
2021/12/05 14:06:53;;;;;;;11.15;7.47;;;3.20;80.30;;;-151.14;100.00;62537.16;4148175;34;20062;-81
2021/12/05 14:09:33;;;;;;;10.35;7.57;;;3.20;80.30;;;-151.14;100.00;62537.16;4107513;34;20255;-82
2021/12/05 14:12:27;;;;;;;9.63;7.15;;;3.10;80.40;;;-151.14;100.00;62537.16;4085522;34;19996;-81
2021/12/05 14:15:06;;;;;;;10.73;7.57;;;3.10;80.40;;;-151.14;100.00;62537.16;4084379;34;20027;-81
2021/12/05 14:17:40;;;;;;;10.98;7.25;;;3.10;80.40;;;-151.14;100.00;62537.16;4084528;34;20099;-81
2021/12/05 14:20:16;;;;;;;12.13;7.68;;;3.10;80.40;;;-151.14;100.00;62537.16;4084939;34;20008;-80
2021/12/05 14:22:46;;;;;;;11.45;7.60;;;3.10;80.40;;;-151.14;100.00;62537.16;4064088;34;20052;-80
2021/12/05 14:25:19;;;;;;;11.32;7.50;;;3.10;80.40;;;-151.14;100.00;62537.16;4083874;34;19996;-81
2021/12/05 14:27:51;;;;;;;12.15;7.93;;;3.10;80.40;;;-151.14;100.00;62537.16;4084697;34;20457;-82
2021/12/05 14:30:21;;;;;;;10.68;7.07;;;3.10;80.40;;;-151.14;100.00;62537.16;4063052;34;20039;-81
2021/12/05 14:32:57;;;;;;;11.85;8.02;;;3.10;80.40;;;-151.14;100.00;62537.16;4062747;34;20185;-81
2021/12/05 14:35:33;;;;;;;;;;;3.10;80.40;;;-151.14;100.00;62537.16;4097312;34;20027;-81
2021/12/05 14:38:02;;;;;;;11.53;8.00;;;3.10;80.40;;;-151.14;100.00;62537.16;4089401;34;19922;-81
2021/12/05 14:40:30;;;;;;;11.95;7.82;;;3.10;80.40;;;-151.14;100.00;62537.16;4105538;34;20008;-80
2021/12/05 14:43:22;;;;;;;11.73;8.38;;;3.10;80.40;;;-151.14;100.00;62537.16;4128125;34;20101;-81
2021/12/05 14:45:48;;;;;;;11.35;7.55;;;3.10;80.40;;;-151.14;100.00;62537.16;4110714;34;19991;-81
2021/12/05 14:48:16;;;;;;;11.32;7.75;;;3.10;81.20;;;-151.14;100.00;62537.16;4083468;34;20080;-81
2021/12/05 14:50:44;;;;;;;14.20;8.15;;;3.00;80.30;;;-151.14;100.00;62537.16;4105865;34;20122;-81
2021/12/05 14:53:13;;;;;;;11.32;8.38;;;3.00;80.30;;;-151.14;100.00;62537.16;4150419;34;19995;-81
2021/12/05 14:55:40;;;;;;;11.07;7.85;;;3.00;80.30;;;-151.14;100.00;62537.16;4110864;34;19984;-81
2021/12/05 14:58:09;;;;;;;14.45;8.45;;;3.00;80.30;;;-151.14;100.00;62537.16;4066316;34;20231;-82
2021/12/05 15:00:42;;;;;;;13.38;9.05;;;3.00;80.30;;;-151.14;100.00;62537.16;4066301;34;20193;-82
2021/12/05 15:03:14;;;;;;;16.83;9.13;;;3.00;80.30;;;-151.14;100.00;62537.16;4087121;34;20071;-82
2021/12/05 15:05:45;;;;;;;14.00;8.88;;;3.00;80.30;;;-151.14;100.00;62537.16;4127420;34;20035;-82
2021/12/05 15:08:25;;;;;;;11.52;8.07;;;3.10;80.40;;;-151.14;100.00;62537.16;4107334;34;20062;-81
2021/12/05 15:10:58;;;;;;;12.85;9.43;;;3.00;80.30;;;-151.14;100.00;62537.16;4090451;34;20274;-81
2021/12/05 15:13:25;;;;;;;13.38;9.02;;;3.00;80.40;;;-151.14;100.00;62537.16;4108321;34;19991;-81
2021/12/05 15:15:52;;;;;;;15.50;9.98;;;3.00;80.40;;;-151.14;100.00;62537.16;4110248;34;20200;-81
2021/12/05 15:18:28;;;;;;;14.90;9.73;;;3.00;80.40;;;-151.14;100.00;62537.16;4065599;34;20018;-80
2021/12/05 15:20:56;;;;;;;16.75;10.02;;;3.00;80.50;;;-151.14;100.00;62537.16;4113958;34;20094;-80
2021/12/05 15:23:28;;;;;;;14.23;9.48;;;3.00;80.50;;;-151.14;100.00;62537.16;4110322;34;19991;-80
2021/12/05 15:25:54;;;;;;;15.80;10.05;;;3.00;80.60;;;-151.14;100.00;62537.16;4066807;34;20310;-81
2021/12/05 15:28:22;;;;;;;19.58;9.63;;;3.00;80.50;;;-151.14;100.00;62537.16;4088437;34;20221;-81
2021/12/05 15:30:49;;;;;;;13.43;9.20;;;3.00;80.60;;;-151.14;100.00;62537.16;4068418;34;20210;-81
2021/12/05 15:33:22;;;;;;;13.52;8.85;;;3.00;80.70;;;-151.14;100.00;62537.16;4089445;34;20374;-81
2021/12/05 15:35:50;;;;;;;15.18;10.25;;;3.00;80.70;;;-151.14;100.00;62537.16;4102097;34;20008;-81
2021/12/05 15:38:24;;;;;;;12.93;8.88;;;3.00;80.80;;;-151.14;100.00;62537.16;4082777;34;20112;-81
2021/12/05 15:41:02;;;;;;;15.68;10.32;;;3.00;80.80;;;-151.14;100.00;62537.16;4127057;34;20058;-81
2021/12/05 15:43:30;;;;;;;19.40;10.90;;;3.00;81.70;;;-151.14;100.00;62537.16;4105329;34;20010;-82
2021/12/05 15:45:57;;;;;;;15.35;11.15;;;3.00;81.00;;;-151.14;100.00;62537.16;4105370;34;20015;-81
2021/12/05 15:48:32;;;;;;;16.95;11.50;;;3.00;80.90;;;-151.14;100.00;62537.16;4085034;34;20016;-81
2021/12/05 15:51:01;;;;;;;17.20;11.45;;;3.00;81.90;;;-151.14;100.00;62537.16;4111566;34;20026;-80
2021/12/05 15:53:28;;;;;;;19.10;12.55;;;3.00;81.10;;;-151.14;100.00;62537.16;4109860;34;20031;-82
2021/12/05 15:56:11;;;;;;;19.17;11.90;;;3.00;81.10;;;-151.14;100.00;62537.16;4109072;34;20038;-81
2021/12/05 15:58:51;;;;;;;21.95;13.43;;;3.00;81.10;;;-151.14;100.00;62537.16;4089532;34;20154;-81